createdAt,value
2022-11-07T00:01:28.553Z,19.60
2022-11-07T00:03:55.400Z,19.70
2022-11-07T00:06:22.680Z,19.97
2022-11-07T00:08:51.243Z,19.73
2022-11-07T00:11:17.914Z,19.93
2022-11-07T00:13:44.598Z,19.30
2022-11-07T00:16:11.572Z,18.63
2022-11-07T00:18:38.313Z,18.73
2022-11-07T00:21:09.952Z,19.63
2022-11-07T00:23:39.913Z,19.67
2022-11-07T00:26:13.037Z,20.77
2022-11-07T00:28:41.933Z,20.00
2022-11-07T00:31:10.282Z,18.23
2022-11-07T00:33:36.987Z,19.20
2022-11-07T00:36:04.144Z,18.87
2022-11-07T00:38:30.917Z,18.27
2022-11-07T00:41:03.108Z,17.83
2022-11-07T00:43:30.572Z,18.50
2022-11-07T00:45:57.878Z,19.27
2022-11-07T00:48:24.717Z,18.37
2022-11-07T00:50:51.526Z,18.87
2022-11-07T00:53:18.312Z,19.27
2022-11-07T00:55:45.405Z,18.80
2022-11-07T00:58:14.216Z,18.17
2022-11-07T01:00:41.835Z,18.20
2022-11-07T01:03:27.751Z,18.40
2022-11-07T01:06:02.097Z,18.77
2022-11-07T01:08:29.385Z,19.30
2022-11-07T01:10:56.814Z,19.37
2022-11-07T01:13:24.404Z,18.37
2022-11-07T01:15:51.868Z,18.63
2022-11-07T01:18:18.706Z,20.57
2022-11-07T01:20:45.445Z,19.43
2022-11-07T01:23:12.357Z,20.90
2022-11-07T01:25:40.168Z,20.23
2022-11-07T01:28:08.605Z,20.17
2022-11-07T01:30:39.624Z,19.97
2022-11-07T01:33:06.384Z,20.53
2022-11-07T01:35:33.976Z,20.17
2022-11-07T01:38:00.686Z,20.33
2022-11-07T01:40:28.589Z,18.97
2022-11-07T01:42:55.310Z,18.80
2022-11-07T01:45:27.825Z,20.10
2022-11-07T01:47:58.679Z,19.67
2022-11-07T01:50:25.833Z,20.73
2022-11-07T01:52:55.244Z,18.47
2022-11-07T01:55:29.178Z,20.27
2022-11-07T01:58:06.382Z,20.13
2022-11-07T02:00:34.029Z,18.87
2022-11-07T02:03:07.745Z,20.10
2022-11-07T02:05:57.993Z,19.23
2022-11-07T02:08:25.798Z,18.83
2022-11-07T02:10:53.852Z,19.87
2022-11-07T02:13:26.719Z,19.77
2022-11-07T02:15:53.704Z,18.30
2022-11-07T02:18:22.396Z,19.50
2022-11-07T02:20:52.144Z,19.03
2022-11-07T02:23:39.425Z,19.90
2022-11-07T02:26:06.437Z,19.70
2022-11-07T02:28:35.291Z,19.23
2022-11-07T02:31:02.198Z,20.43
2022-11-07T02:33:28.874Z,20.90
2022-11-07T02:35:55.753Z,20.10
2022-11-07T02:38:30.987Z,18.80
2022-11-07T02:41:08.491Z,20.00
2022-11-07T02:43:38.100Z,19.73
2022-11-07T02:46:07.604Z,18.43
2022-11-07T02:48:43.121Z,19.70
2022-11-07T02:51:09.816Z,20.30
2022-11-07T02:53:36.544Z,19.93
2022-11-07T02:56:03.700Z,19.13
2022-11-07T02:58:30.417Z,20.17
2022-11-07T03:01:07.076Z,21.13
2022-11-07T03:03:41.577Z,20.47
2022-11-07T03:06:10.706Z,21.80
2022-11-07T03:08:37.507Z,20.50
2022-11-07T03:11:05.346Z,20.40
2022-11-07T03:13:32.271Z,20.83
2022-11-07T03:15:59.716Z,21.50
2022-11-07T03:18:27.161Z,21.07
2022-11-07T03:20:53.819Z,21.77
2022-11-07T03:23:20.506Z,20.93
2022-11-07T03:25:47.183Z,20.87
2022-11-07T03:28:13.859Z,21.77
2022-11-07T03:30:40.549Z,21.60
2022-11-07T03:33:07.260Z,20.33
2022-11-07T03:35:34.206Z,19.40
2022-11-07T03:38:01.039Z,22.03
2022-11-07T03:40:28.086Z,21.03
2022-11-07T03:42:54.948Z,22.53
2022-11-07T03:45:21.934Z,20.57
2022-11-07T03:47:48.691Z,21.43
2022-11-07T03:50:21.181Z,21.57
2022-11-07T03:52:48.741Z,21.63
2022-11-07T03:55:18.030Z,21.37
2022-11-07T03:57:45.567Z,21.03
2022-11-07T04:00:13.430Z,21.23
2022-11-07T04:02:40.768Z,21.47
2022-11-07T04:05:08.064Z,21.13
2022-11-07T04:07:34.940Z,20.90
2022-11-07T04:10:01.714Z,20.90
2022-11-07T04:12:47.072Z,21.87
2022-11-07T04:15:32.476Z,23.30
2022-11-07T04:18:00.629Z,22.50
2022-11-07T04:20:28.632Z,22.03
2022-11-07T04:22:55.431Z,21.37
2022-11-07T04:25:42.254Z,21.23
2022-11-07T04:28:08.945Z,23.03
2022-11-07T04:30:35.694Z,20.73
2022-11-07T04:33:03.025Z,23.47
2022-11-07T04:35:32.353Z,23.43
2022-11-07T04:38:00.063Z,22.53
2022-11-07T04:40:27.601Z,23.33
2022-11-07T04:42:54.986Z,23.37
2022-11-07T04:45:22.002Z,23.07
2022-11-07T04:47:49.292Z,23.17
2022-11-07T04:50:18.197Z,23.30
2022-11-07T04:52:46.600Z,23.23
2022-11-07T04:55:25.927Z,20.73
2022-11-07T04:57:53.162Z,23.07
2022-11-07T05:00:20.670Z,21.40
2022-11-07T05:02:48.019Z,22.10
2022-11-07T05:05:15.835Z,21.40
2022-11-07T05:07:42.917Z,21.47
2022-11-07T05:10:19.048Z,20.57
2022-11-07T05:12:46.109Z,21.27
2022-11-07T05:15:13.156Z,20.57
2022-11-07T05:17:40.165Z,22.00
2022-11-07T05:20:07.705Z,20.20
2022-11-07T05:22:56.259Z,19.67
2022-11-07T05:25:23.227Z,18.60
2022-11-07T05:27:55.411Z,19.67
2022-11-07T05:30:22.076Z,19.63
2022-11-07T05:32:48.740Z,19.47
2022-11-07T05:35:15.536Z,20.63
2022-11-07T05:37:42.250Z,19.27
2022-11-07T05:40:09.610Z,19.50
2022-11-07T05:42:36.308Z,19.57
2022-11-07T05:45:03.160Z,17.70
2022-11-07T05:47:29.870Z,17.30
2022-11-07T05:49:56.558Z,16.10
2022-11-07T05:52:23.318Z,16.73
2022-11-07T05:54:50.039Z,15.47
2022-11-07T05:57:16.716Z,15.17
2022-11-07T05:59:43.573Z,14.63
2022-11-07T06:02:10.348Z,13.73
2022-11-07T06:04:37.170Z,13.00
2022-11-07T06:07:03.876Z,14.23
2022-11-07T06:09:30.541Z,13.03
2022-11-07T06:11:57.218Z,12.50
2022-11-07T06:14:23.927Z,12.67
2022-11-07T06:16:50.614Z,13.10
2022-11-07T06:19:17.393Z,12.90
2022-11-07T06:21:44.073Z,12.87
2022-11-07T06:24:15.066Z,13.27
2022-11-07T06:26:42.280Z,12.57
2022-11-07T06:29:09.061Z,12.37
2022-11-07T06:31:35.742Z,13.07
2022-11-07T06:34:02.507Z,12.30
2022-11-07T06:36:29.221Z,12.80
2022-11-07T06:38:56.019Z,12.43
2022-11-07T06:41:22.874Z,11.60
2022-11-07T06:43:51.812Z,13.30
2022-11-07T06:46:23.275Z,12.97
2022-11-07T06:48:49.967Z,12.27
2022-11-07T06:51:17.015Z,12.10
2022-11-07T06:53:43.857Z,12.57
2022-11-07T06:56:14.222Z,11.47
2022-11-07T06:58:41.110Z,13.20
2022-11-07T07:01:09.954Z,12.13
2022-11-07T07:03:36.654Z,12.13
2022-11-07T07:06:05.207Z,12.00
2022-11-07T07:08:33.202Z,11.07
2022-11-07T07:11:08.365Z,11.43
2022-11-07T07:13:35.490Z,10.80
2022-11-07T07:16:02.488Z,11.80
2022-11-07T07:18:30.652Z,12.63
2022-11-07T07:21:09.402Z,11.43
2022-11-07T07:23:36.523Z,11.57
2022-11-07T07:26:08.899Z,10.07
2022-11-07T07:28:37.216Z,10.10
2022-11-07T07:31:20.269Z,10.13
2022-11-07T07:33:48.448Z,10.50
2022-11-07T07:36:20.545Z,9.87
2022-11-07T07:38:48.531Z,9.63
2022-11-07T07:41:15.350Z,9.23
2022-11-07T07:43:42.168Z,10.17
2022-11-07T07:46:13.098Z,9.13
2022-11-07T07:48:39.783Z,10.03
2022-11-07T07:51:06.940Z,9.23
2022-11-07T07:53:33.746Z,9.90
2022-11-07T07:56:02.763Z,9.60
2022-11-07T07:58:29.562Z,9.40
2022-11-07T08:00:57.983Z,9.43
2022-11-07T08:03:25.765Z,9.20
2022-11-07T08:05:59.027Z,9.47
2022-11-07T08:08:26.363Z,8.77
2022-11-07T08:10:56.893Z,9.57
2022-11-07T08:13:25.395Z,8.97
2022-11-07T08:15:53.073Z,9.07
2022-11-07T08:18:21.949Z,9.20
2022-11-07T08:20:53.949Z,8.63
2022-11-07T08:23:21.940Z,8.63
2022-11-07T08:25:51.255Z,8.67
2022-11-07T08:28:18.551Z,9.20
2022-11-07T08:30:45.252Z,9.47
2022-11-07T08:33:13.146Z,8.40
2022-11-07T08:35:42.636Z,8.67
2022-11-07T08:38:09.784Z,9.40
2022-11-07T08:40:36.585Z,9.63
2022-11-07T08:43:03.294Z,8.97
2022-11-07T08:45:29.982Z,8.70
2022-11-07T08:48:00.853Z,9.13
2022-11-07T08:50:28.034Z,8.23
2022-11-07T08:52:59.749Z,8.40
2022-11-07T08:55:29.398Z,8.93
2022-11-07T08:58:00.514Z,8.80
2022-11-07T09:00:27.939Z,8.20
2022-11-07T09:03:30.765Z,7.40
2022-11-07T09:05:41.338Z,7.53
2022-11-07T09:08:08.013Z,7.80
2022-11-07T09:10:34.821Z,7.13
2022-11-07T09:13:01.535Z,7.97
2022-11-07T09:15:28.506Z,7.97
2022-11-07T09:17:55.292Z,7.77
2022-11-07T09:20:22.041Z,7.17
2022-11-07T09:22:48.821Z,7.67
2022-11-07T09:25:15.676Z,7.63
2022-11-07T09:27:42.469Z,7.70
2022-11-07T09:30:09.779Z,7.77
2022-11-07T09:32:44.922Z,7.37
2022-11-07T09:35:13.091Z,7.50
2022-11-07T09:37:41.136Z,7.40
2022-11-07T09:40:28.282Z,7.53
2022-11-07T09:43:30.523Z,7.30
2022-11-07T09:46:36.017Z,7.17
2022-11-07T09:49:05.564Z,6.43
2022-11-07T09:51:42.606Z,6.63
2022-11-07T09:54:26.394Z,6.73
2022-11-07T09:56:55.693Z,7.10
2022-11-07T09:59:32.572Z,7.23
2022-11-07T10:01:59.320Z,7.13
2022-11-07T10:04:26.889Z,6.63
2022-11-07T10:07:03.928Z,7.17
2022-11-07T10:09:52.090Z,7.70
2022-11-07T10:12:44.721Z,8.80
2022-11-07T10:15:45.103Z,7.73
2022-11-07T10:19:12.911Z,7.93
2022-11-07T10:21:51.580Z,8.30
2022-11-07T10:24:53.833Z,8.07
2022-11-07T10:27:21.494Z,7.00
2022-11-07T10:29:52.696Z,6.67
2022-11-07T10:32:40.869Z,6.90
2022-11-07T10:35:33.144Z,6.30
2022-11-07T10:38:19.680Z,6.60
2022-11-07T10:40:47.566Z,6.70
2022-11-07T10:43:23.738Z,7.23
2022-11-07T10:45:52.134Z,6.53
2022-11-07T10:48:19.138Z,7.07
2022-11-07T10:50:56.333Z,6.60
2022-11-07T10:53:25.163Z,5.70
2022-11-07T10:55:53.907Z,5.57
2022-11-07T10:58:30.085Z,6.97
2022-11-07T11:01:22.858Z,7.07
2022-11-07T11:03:49.875Z,6.10
2022-11-07T11:06:19.798Z,5.70
2022-11-07T11:08:48.560Z,6.70
2022-11-07T11:11:21.174Z,6.67
2022-11-07T11:13:49.019Z,6.17
2022-11-07T11:16:25.434Z,6.97
2022-11-07T11:18:55.991Z,6.30
2022-11-07T11:21:23.211Z,5.40
2022-11-07T11:23:50.521Z,6.20
2022-11-07T11:26:36.342Z,6.60
2022-11-07T11:29:11.091Z,6.93
2022-11-07T11:31:45.186Z,6.03
2022-11-07T11:34:42.484Z,6.17
2022-11-07T11:37:21.684Z,6.33
2022-11-07T11:40:04.416Z,6.20
2022-11-07T11:42:55.193Z,5.87
2022-11-07T11:45:40.117Z,5.67
2022-11-07T11:48:45.200Z,5.60
2022-11-07T11:51:22.402Z,6.27
2022-11-07T11:53:49.588Z,6.17
2022-11-07T11:56:27.137Z,6.53
2022-11-07T11:59:12.945Z,6.83
2022-11-07T12:01:48.066Z,7.20
2022-11-07T12:04:39.146Z,5.73
2022-11-07T12:07:36.465Z,6.00
2022-11-07T12:10:24.689Z,6.30
2022-11-07T12:13:10.632Z,6.03
2022-11-07T12:15:43.256Z,5.20
2022-11-07T12:18:33.874Z,5.73
2022-11-07T12:21:22.389Z,5.83
2022-11-07T12:24:30.170Z,5.83
2022-11-07T12:27:11.768Z,5.50
2022-11-07T12:30:06.012Z,4.37
2022-11-07T12:32:59.820Z,4.13
2022-11-07T12:35:44.983Z,3.40
2022-11-07T12:38:47.508Z,3.33
2022-11-07T12:41:20.399Z,3.20
2022-11-07T12:43:55.264Z,5.70
2022-11-07T12:46:33.562Z,7.67
2022-11-07T12:49:26.537Z,6.93
2022-11-07T12:52:20.900Z,4.63
2022-11-07T12:55:02.605Z,3.83
2022-11-07T12:57:36.722Z,3.80
2022-11-07T13:00:30.150Z,3.60
2022-11-07T13:03:30.640Z,4.23
2022-11-07T13:06:15.979Z,4.00
2022-11-07T13:08:59.884Z,4.50
2022-11-07T13:11:29.323Z,6.33
2022-11-07T13:14:19.623Z,6.80
2022-11-07T13:17:15.464Z,4.97
2022-11-07T13:19:57.438Z,4.27
2022-11-07T13:22:39.066Z,6.83
2022-11-07T13:25:16.073Z,4.73
2022-11-07T13:27:46.843Z,5.03
2022-11-07T13:30:13.622Z,6.13
2022-11-07T13:32:42.531Z,5.60
2022-11-07T13:35:35.311Z,10.17
2022-11-07T13:38:11.256Z,7.07
2022-11-07T13:41:04.960Z,7.27
2022-11-07T13:43:55.248Z,8.43
2022-11-07T13:46:37.281Z,5.50
2022-11-07T13:49:17.176Z,4.67
2022-11-07T13:51:48.788Z,4.33
2022-11-07T13:54:30.254Z,6.70
2022-11-07T13:57:01.687Z,8.93
2022-11-07T13:59:36.815Z,9.83
2022-11-07T14:02:04.281Z,7.77
2022-11-07T14:04:39.878Z,8.40
2022-11-07T14:07:11.792Z,8.17
2022-11-07T14:09:39.644Z,7.07
2022-11-07T14:12:06.603Z,5.90
2022-11-07T14:14:33.378Z,6.50
2022-11-07T14:17:01.088Z,7.37
2022-11-07T14:19:28.429Z,7.37
2022-11-07T14:21:56.024Z,6.20
2022-11-07T14:24:27.079Z,6.50
2022-11-07T14:27:14.598Z,5.90
2022-11-07T14:29:58.342Z,7.10
2022-11-07T14:32:30.763Z,8.77
2022-11-07T14:35:00.154Z,7.43
2022-11-07T14:37:27.094Z,6.93
2022-11-07T14:39:53.871Z,7.87
2022-11-07T14:42:23.682Z,7.97
2022-11-07T14:44:55.530Z,6.20
2022-11-07T14:47:28.904Z,7.37
2022-11-07T14:49:56.886Z,6.73
2022-11-07T14:52:29.345Z,6.07
2022-11-07T14:55:19.045Z,5.30
2022-11-07T14:57:46.467Z,4.83
2022-11-07T15:00:16.086Z,4.80
2022-11-07T15:02:45.919Z,5.10
2022-11-07T15:05:50.133Z,6.30
2022-11-07T15:08:32.567Z,8.03
2022-11-07T15:11:27.224Z,7.83
2022-11-07T15:13:54.571Z,7.17
2022-11-07T15:16:22.847Z,7.50
2022-11-07T15:19:01.340Z,7.93
2022-11-07T15:21:32.098Z,7.87
2022-11-07T15:24:00.746Z,7.77
2022-11-07T15:26:33.203Z,7.37
2022-11-07T15:29:30.119Z,7.23
2022-11-07T15:31:57.668Z,6.90
2022-11-07T15:34:52.482Z,7.30
2022-11-07T15:37:23.709Z,7.10
2022-11-07T15:39:50.641Z,7.53
2022-11-07T15:42:17.353Z,7.57
2022-11-07T15:44:44.085Z,7.00
2022-11-07T15:47:19.719Z,8.00
2022-11-07T15:49:46.856Z,8.43
2022-11-07T15:52:14.094Z,9.73
2022-11-07T15:54:40.752Z,11.20
2022-11-07T15:57:08.380Z,9.63
2022-11-07T15:59:37.146Z,8.03
2022-11-07T16:02:04.599Z,8.13
2022-11-07T16:04:33.383Z,8.67
2022-11-07T16:07:19.100Z,8.30
2022-11-07T16:12:51.186Z,8.80
2022-11-07T16:15:28.675Z,8.77
2022-11-07T16:17:58.149Z,8.43
2022-11-07T16:20:25.091Z,8.17
2022-11-07T16:22:52.268Z,6.97
2022-11-07T16:25:23.453Z,7.37
2022-11-07T16:28:01.018Z,8.10
2022-11-07T16:30:31.240Z,7.60
2022-11-07T16:32:58.054Z,8.23
2022-11-07T16:35:25.058Z,10.23
2022-11-07T16:37:51.855Z,10.63
2022-11-07T16:40:20.053Z,9.93
2022-11-07T16:42:47.700Z,10.50
2022-11-07T16:45:16.936Z,16.80
2022-11-07T16:47:45.589Z,13.47
2022-11-07T16:50:16.995Z,12.57
2022-11-07T16:52:43.701Z,13.10
2022-11-07T16:55:20.335Z,15.80
2022-11-07T16:57:48.006Z,16.90
2022-11-07T17:00:19.710Z,17.03
2022-11-07T17:02:49.415Z,14.63
2022-11-07T17:05:16.373Z,12.20
2022-11-07T17:07:43.267Z,11.80
2022-11-07T17:10:15.579Z,11.90
2022-11-07T17:12:42.592Z,12.63
2022-11-07T17:15:11.063Z,10.87
2022-11-07T17:17:38.010Z,12.33
2022-11-07T17:20:06.173Z,14.20
2022-11-07T17:22:33.240Z,15.47
2022-11-07T17:24:59.973Z,11.10
2022-11-07T17:27:28.272Z,13.77
2022-11-07T17:29:55.390Z,13.60
2022-11-07T17:32:22.429Z,15.50
2022-11-07T17:35:04.658Z,12.97
2022-11-07T17:37:36.198Z,14.70
2022-11-07T17:40:04.206Z,14.77
2022-11-07T17:42:36.630Z,11.93
2022-11-07T17:45:05.353Z,12.43
2022-11-07T17:47:34.336Z,12.23
2022-11-07T17:50:01.432Z,15.00
2022-11-07T17:52:28.266Z,14.43
2022-11-07T17:54:55.069Z,15.87
2022-11-07T17:57:22.653Z,14.90
2022-11-07T17:59:49.722Z,16.00
2022-11-07T18:02:18.638Z,39.70
2022-11-07T18:04:46.223Z,34.80
2022-11-07T18:07:12.993Z,21.40
2022-11-07T18:09:43.193Z,17.70
2022-11-07T18:12:11.146Z,16.07
2022-11-07T18:14:38.247Z,18.97
2022-11-07T18:17:06.145Z,22.33
2022-11-07T18:19:33.221Z,22.30
2022-11-07T18:22:00.002Z,21.60
2022-11-07T18:24:26.881Z,22.43
2022-11-07T18:26:54.007Z,21.10
2022-11-07T18:29:21.040Z,17.87
2022-11-07T18:31:49.692Z,14.50
2022-11-07T18:34:17.013Z,14.33
2022-11-07T18:36:45.401Z,14.13
2022-11-07T18:39:21.619Z,12.47
2022-11-07T18:41:49.576Z,13.87
2022-11-07T18:44:16.729Z,16.53
2022-11-07T18:46:43.591Z,14.23
2022-11-07T18:49:12.201Z,17.83
2022-11-07T18:51:39.504Z,16.27
2022-11-07T18:54:06.987Z,16.50
2022-11-07T18:56:33.760Z,15.83
2022-11-07T18:59:00.478Z,20.73
2022-11-07T19:01:30.803Z,25.00
2022-11-07T19:04:00.001Z,23.47
2022-11-07T19:06:29.429Z,19.87
2022-11-07T19:08:56.359Z,24.03
2022-11-07T19:11:29.446Z,27.90
2022-11-07T19:14:00.473Z,28.77
2022-11-07T19:16:28.119Z,30.90
2022-11-07T19:18:54.805Z,29.33
2022-11-07T19:21:23.403Z,22.87
2022-11-07T19:23:50.557Z,19.63
2022-11-07T19:26:19.155Z,19.63
2022-11-07T19:28:46.570Z,20.83
2022-11-07T19:31:13.670Z,23.27
2022-11-07T19:33:41.700Z,22.77
2022-11-07T19:36:14.282Z,23.07
2022-11-07T19:38:41.040Z,21.73
2022-11-07T19:41:09.060Z,22.03
2022-11-07T19:43:36.271Z,23.23
2022-11-07T19:46:08.455Z,22.13
2022-11-07T19:48:35.230Z,22.50
2022-11-07T19:51:10.909Z,20.07
2022-11-07T19:53:37.581Z,19.97
2022-11-07T19:56:14.270Z,21.40
2022-11-07T19:58:42.466Z,20.53
2022-11-07T20:01:13.880Z,18.60
2022-11-07T20:03:47.282Z,18.63
2022-11-07T20:06:16.333Z,15.60
2022-11-07T20:08:46.362Z,16.63
2022-11-07T20:11:18.991Z,17.70
2022-11-07T20:13:46.176Z,13.40
2022-11-07T20:16:13.110Z,12.73
2022-11-07T20:18:40.792Z,13.37
2022-11-07T20:21:13.668Z,14.30
2022-11-07T20:23:45.006Z,12.70
2022-11-07T20:26:14.918Z,13.83
2022-11-07T20:28:42.183Z,14.07
2022-11-07T20:31:09.865Z,11.73
2022-11-07T20:33:36.662Z,11.83
2022-11-07T20:36:06.900Z,11.73
2022-11-07T20:38:34.314Z,11.57
2022-11-07T20:41:03.200Z,10.73
2022-11-07T20:43:30.278Z,10.60
2022-11-07T20:45:57.185Z,11.53
2022-11-07T20:48:23.950Z,11.90
2022-11-07T20:50:51.096Z,11.33
2022-11-07T20:53:18.519Z,11.33
2022-11-07T20:55:45.598Z,10.53
2022-11-07T20:58:12.610Z,11.10
2022-11-07T21:00:40.828Z,10.17
2022-11-07T21:03:13.267Z,10.10
2022-11-07T21:05:40.075Z,10.27
2022-11-07T21:08:06.997Z,12.23
2022-11-07T21:10:33.802Z,11.73
2022-11-07T21:13:00.564Z,11.80
2022-11-07T21:15:27.359Z,11.17
2022-11-07T21:17:54.056Z,10.47
2022-11-07T21:20:20.755Z,11.23
2022-11-07T21:22:50.844Z,9.83
2022-11-07T21:25:17.636Z,10.47
2022-11-07T21:27:44.527Z,10.07
2022-11-07T21:30:12.969Z,11.43
2022-11-07T21:32:40.614Z,10.77
2022-11-07T21:35:09.330Z,10.80
2022-11-07T21:37:36.959Z,10.67
2022-11-07T21:40:05.391Z,11.00
2022-11-07T21:42:32.207Z,11.60
2022-11-07T21:44:59.131Z,10.47
2022-11-07T21:47:25.886Z,11.33
2022-11-07T21:49:52.685Z,10.27
2022-11-07T21:52:19.441Z,9.00
2022-11-07T21:54:46.471Z,9.77
2022-11-07T21:57:13.228Z,9.93
2022-11-07T21:59:39.913Z,8.77
2022-11-07T22:02:07.107Z,9.07
2022-11-07T22:04:33.880Z,9.03
2022-11-07T22:07:01.320Z,8.97
2022-11-07T22:09:28.139Z,9.60
2022-11-07T22:11:54.932Z,8.77
2022-11-07T22:14:23.121Z,8.37
2022-11-07T22:16:51.279Z,7.73
2022-11-07T22:19:18.925Z,7.80
2022-11-07T22:21:45.695Z,8.90
2022-11-07T22:24:12.438Z,8.40
2022-11-07T22:26:39.229Z,9.20
2022-11-07T22:29:06.092Z,8.50
2022-11-07T22:31:32.950Z,8.47
2022-11-07T22:34:00.850Z,8.87
2022-11-07T22:36:28.619Z,8.40
2022-11-07T22:38:57.833Z,7.77
2022-11-07T22:41:25.915Z,7.60
2022-11-07T22:43:52.765Z,8.03
2022-11-07T22:46:22.199Z,8.33
2022-11-07T22:48:50.160Z,8.00
2022-11-07T22:51:22.042Z,7.90
2022-11-07T22:53:54.661Z,7.60
2022-11-07T22:56:21.619Z,8.57
2022-11-07T22:58:48.766Z,7.60
2022-11-07T23:01:28.021Z,7.80
2022-11-07T23:03:55.634Z,7.63
2022-11-07T23:06:24.084Z,7.53
2022-11-07T23:08:52.115Z,7.23
2022-11-07T23:14:17.337Z,7.27
2022-11-07T23:16:50.071Z,7.20
2022-11-07T23:19:18.955Z,7.40
2022-11-07T23:21:45.916Z,8.50
2022-11-07T23:24:13.337Z,7.23
2022-11-07T23:26:40.213Z,7.43
2022-11-07T23:29:19.684Z,7.93
2022-11-07T23:31:48.029Z,7.30
2022-11-07T23:34:15.192Z,7.63
2022-11-07T23:39:29.363Z,7.43
2022-11-07T23:41:56.087Z,7.47
2022-11-07T23:44:22.816Z,7.60
2022-11-07T23:47:08.113Z,7.43
2022-11-07T23:49:53.477Z,7.27
2022-11-07T23:52:20.568Z,7.20
2022-11-07T23:55:05.975Z,7.30
2022-11-07T23:57:56.876Z,8.03
